createdAt,value
2022-09-28T00:00:58.593Z,100.00
2022-09-28T00:03:28.093Z,100.00
2022-09-28T00:06:02.087Z,100.00
2022-09-28T00:08:29.888Z,100.00
2022-09-28T00:10:59.302Z,100.00
2022-09-28T00:13:28.178Z,100.00
2022-09-28T00:16:04.461Z,100.00
2022-09-28T00:18:33.638Z,100.00
2022-09-28T00:21:03.452Z,100.00
2022-09-28T00:23:31.957Z,100.00
2022-09-28T00:26:04.649Z,100.00
2022-09-28T00:28:32.703Z,100.00
2022-09-28T00:31:00.896Z,100.00
2022-09-28T00:33:28.603Z,100.00
2022-09-28T00:35:58.020Z,100.00
2022-09-28T00:38:28.493Z,100.00
2022-09-28T00:40:56.854Z,100.00
2022-09-28T00:43:29.439Z,100.00
2022-09-28T00:46:00.453Z,100.00
2022-09-28T00:48:31.426Z,100.00
2022-09-28T00:50:59.636Z,100.00
2022-09-28T00:53:31.703Z,100.00
2022-09-28T00:56:01.013Z,100.00
2022-09-28T00:58:31.704Z,100.00
2022-09-28T01:01:00.432Z,100.00
2022-09-28T01:03:29.683Z,100.00
2022-09-28T01:05:59.780Z,100.00
2022-09-28T01:08:29.259Z,100.00
2022-09-28T01:10:57.464Z,100.00
2022-09-28T01:13:25.699Z,100.00
2022-09-28T01:16:00.768Z,100.00
2022-09-28T01:18:34.295Z,100.00
2022-09-28T01:21:03.341Z,100.00
2022-09-28T01:24:00.187Z,100.00
2022-09-28T01:27:00.647Z,100.00
2022-09-28T01:29:35.879Z,100.00
2022-09-28T01:32:12.798Z,100.00
2022-09-28T01:34:43.877Z,100.00
2022-09-28T01:37:12.971Z,100.00
2022-09-28T01:39:43.165Z,100.00
2022-09-28T01:42:16.642Z,100.00
2022-09-28T01:44:46.457Z,100.00
2022-09-28T01:47:16.714Z,100.00
2022-09-28T01:49:47.449Z,100.00
2022-09-28T01:52:17.578Z,100.00
2022-09-28T01:54:48.796Z,100.00
2022-09-28T01:57:20.268Z,100.00
2022-09-28T01:59:59.731Z,100.00
2022-09-28T02:02:32.627Z,100.00
2022-09-28T02:05:04.576Z,100.00
2022-09-28T02:07:36.043Z,100.00
2022-09-28T02:10:09.776Z,100.00
2022-09-28T02:12:40.553Z,100.00
2022-09-28T02:15:13.364Z,100.00
2022-09-28T02:17:41.646Z,100.00
2022-09-28T02:20:10.055Z,100.00
2022-09-28T02:22:42.991Z,100.00
2022-09-28T02:25:12.997Z,100.00
2022-09-28T02:27:45.008Z,100.00
2022-09-28T02:30:13.524Z,100.00
2022-09-28T02:32:43.625Z,100.00
2022-09-28T02:35:15.955Z,100.00
2022-09-28T02:37:44.655Z,100.00
2022-09-28T02:40:16.395Z,100.00
2022-09-28T02:42:54.364Z,100.00
2022-09-28T02:45:31.242Z,100.00
2022-09-28T02:48:06.673Z,100.00
2022-09-28T02:50:41.472Z,100.00
2022-09-28T02:53:29.089Z,100.00
2022-09-28T02:56:11.293Z,100.00
2022-09-28T02:58:50.838Z,100.00
2022-09-28T03:01:31.271Z,100.00
2022-09-28T03:04:02.473Z,100.00
2022-09-28T03:06:34.056Z,100.00
2022-09-28T03:09:06.490Z,100.00
2022-09-28T03:11:36.453Z,100.00
2022-09-28T03:14:06.088Z,100.00
2022-09-28T03:16:33.933Z,100.00
2022-09-28T03:19:01.728Z,100.00
2022-09-28T03:21:29.588Z,100.00
2022-09-28T03:23:57.843Z,100.00
2022-09-28T03:26:25.633Z,100.00
2022-09-28T03:28:53.548Z,100.00
2022-09-28T03:31:22.653Z,100.00
2022-09-28T03:33:52.483Z,100.00
2022-09-28T03:36:20.937Z,100.00
2022-09-28T03:38:49.118Z,100.00
2022-09-28T03:41:17.741Z,100.00
2022-09-28T03:43:45.501Z,100.00
2022-09-28T03:46:13.200Z,100.00
2022-09-28T03:48:42.698Z,100.00
2022-09-28T03:51:11.732Z,100.00
2022-09-28T03:53:40.515Z,100.00
2022-09-28T03:56:10.190Z,100.00
2022-09-28T03:58:39.023Z,100.00
2022-09-28T04:01:14.162Z,100.00
2022-09-28T04:03:46.737Z,100.00
2022-09-28T04:06:15.312Z,100.00
2022-09-28T04:08:43.481Z,100.00
2022-09-28T04:11:11.397Z,100.00
2022-09-28T04:13:39.297Z,100.00
2022-09-28T04:16:07.354Z,100.00
2022-09-28T04:18:35.622Z,100.00
2022-09-28T04:21:07.820Z,100.00
2022-09-28T04:23:36.541Z,100.00
2022-09-28T04:26:04.501Z,100.00
2022-09-28T04:28:49.398Z,100.00
2022-09-28T04:31:19.250Z,100.00
2022-09-28T04:33:47.219Z,100.00
2022-09-28T04:36:16.363Z,100.00
2022-09-28T04:38:59.362Z,100.00
2022-09-28T04:41:27.348Z,100.00
2022-09-28T04:43:54.989Z,100.00
2022-09-28T04:46:22.727Z,100.00
2022-09-28T04:48:50.595Z,100.00
2022-09-28T04:51:20.568Z,100.00
2022-09-28T04:53:48.342Z,100.00
2022-09-28T04:56:16.671Z,100.00
2022-09-28T04:58:50.304Z,100.00
2022-09-28T05:01:21.187Z,100.00
2022-09-28T05:03:49.144Z,100.00
2022-09-28T05:06:17.100Z,100.00
2022-09-28T05:08:47.397Z,100.00
2022-09-28T05:11:16.101Z,100.00
2022-09-28T05:13:46.209Z,100.00
2022-09-28T05:16:15.958Z,100.00
2022-09-28T05:18:43.916Z,100.00
2022-09-28T05:21:13.135Z,100.00
2022-09-28T05:23:40.859Z,100.00
2022-09-28T05:26:09.965Z,100.00
2022-09-28T05:28:37.854Z,100.00
2022-09-28T05:31:06.585Z,100.00
2022-09-28T05:33:35.161Z,100.00
2022-09-28T05:36:03.508Z,100.00
2022-09-28T05:38:32.308Z,100.00
2022-09-28T05:41:04.350Z,100.00
2022-09-28T05:43:36.316Z,100.00
2022-09-28T05:46:04.091Z,100.00
2022-09-28T05:48:31.883Z,100.00
2022-09-28T05:50:59.822Z,100.00
2022-09-28T05:53:28.410Z,100.00
2022-09-28T05:55:58.975Z,100.00
2022-09-28T05:58:27.308Z,100.00
2022-09-28T06:00:57.698Z,100.00
2022-09-28T06:03:26.372Z,100.00
2022-09-28T06:05:54.739Z,100.00
2022-09-28T06:08:22.536Z,100.00
2022-09-28T06:10:50.267Z,100.00
2022-09-28T06:13:17.961Z,100.00
2022-09-28T06:15:46.425Z,100.00
2022-09-28T06:18:15.941Z,100.00
2022-09-28T06:20:44.340Z,100.00
2022-09-28T06:23:14.245Z,100.00
2022-09-28T06:25:42.421Z,100.00
2022-09-28T06:28:11.712Z,100.00
2022-09-28T06:30:39.520Z,100.00
2022-09-28T06:33:08.537Z,100.00
2022-09-28T06:35:37.632Z,100.00
2022-09-28T06:38:05.364Z,100.00
2022-09-28T06:40:34.327Z,100.00
2022-09-28T06:43:03.560Z,100.00
2022-09-28T06:45:31.873Z,100.00
2022-09-28T06:48:00.853Z,100.00
2022-09-28T06:50:32.166Z,100.00
2022-09-28T06:53:02.117Z,100.00
2022-09-28T06:55:30.320Z,100.00
2022-09-28T06:57:59.364Z,100.00
2022-09-28T07:00:27.866Z,100.00
2022-09-28T07:02:55.602Z,100.00
2022-09-28T07:05:24.223Z,100.00
2022-09-28T07:07:54.451Z,100.00
2022-09-28T07:10:24.370Z,100.00
2022-09-28T07:12:52.596Z,100.00
2022-09-28T07:15:22.852Z,100.00
2022-09-28T07:18:00.466Z,100.00
2022-09-28T07:20:30.745Z,100.00
2022-09-28T07:23:11.939Z,100.00
2022-09-28T07:25:48.042Z,100.00
2022-09-28T07:28:16.507Z,100.00
2022-09-28T07:30:45.357Z,100.00
2022-09-28T07:33:16.029Z,100.00
2022-09-28T07:35:52.001Z,100.00
2022-09-28T07:38:20.545Z,100.00
2022-09-28T07:41:07.622Z,100.00
2022-09-28T07:43:35.417Z,100.00
2022-09-28T07:46:03.329Z,100.00
2022-09-28T07:48:36.638Z,100.00
2022-09-28T07:51:05.119Z,100.00
2022-09-28T07:53:33.284Z,100.00
2022-09-28T07:56:07.246Z,100.00
2022-09-28T07:58:36.542Z,100.00
2022-09-28T08:01:06.931Z,100.00
2022-09-28T08:03:35.707Z,100.00
2022-09-28T08:06:05.226Z,100.00
2022-09-28T08:08:34.621Z,100.00
2022-09-28T08:11:04.461Z,100.00
2022-09-28T08:13:32.132Z,100.00
2022-09-28T08:16:02.789Z,100.00
2022-09-28T08:18:31.247Z,100.00
2022-09-28T08:21:17.506Z,100.00
2022-09-28T08:23:45.204Z,100.00
2022-09-28T08:26:15.659Z,100.00
2022-09-28T08:28:45.003Z,100.00
2022-09-28T08:31:12.882Z,100.00
2022-09-28T08:33:42.028Z,100.00
2022-09-28T08:36:11.324Z,100.00
2022-09-28T08:38:39.165Z,100.00
2022-09-28T08:41:18.097Z,100.00
2022-09-28T08:44:16.824Z,100.00
2022-09-28T08:46:47.695Z,100.00
2022-09-28T08:49:25.365Z,100.00
2022-09-28T08:51:57.438Z,100.00
2022-09-28T08:54:35.157Z,100.00
2022-09-28T08:57:06.816Z,100.00
2022-09-28T08:59:44.712Z,100.00
2022-09-28T09:02:17.043Z,100.00
2022-09-28T09:04:45.048Z,100.00
2022-09-28T09:07:22.562Z,100.00
2022-09-28T09:09:59.391Z,100.00
2022-09-28T09:12:34.832Z,100.00
2022-09-28T09:15:13.110Z,100.00
2022-09-28T09:17:49.820Z,100.00
2022-09-28T09:20:20.552Z,100.00
2022-09-28T09:22:59.390Z,100.00
2022-09-28T09:25:29.489Z,99.31
2022-09-28T09:28:26.376Z,96.39
2022-09-28T09:31:03.393Z,94.26
2022-09-28T09:33:53.461Z,93.89
2022-09-28T09:36:32.084Z,94.84
2022-09-28T09:39:22.753Z,96.34
2022-09-28T09:42:04.036Z,94.75
2022-09-28T09:44:52.328Z,93.58
2022-09-28T09:47:22.413Z,92.99
2022-09-28T09:49:52.554Z,93.29
2022-09-28T09:52:23.591Z,93.78
2022-09-28T09:54:56.162Z,95.25
2022-09-28T09:57:30.824Z,94.45
2022-09-28T10:00:01.907Z,93.88
2022-09-28T10:02:32.091Z,92.63
2022-09-28T10:05:03.660Z,92.61
2022-09-28T10:07:43.221Z,91.03
2022-09-28T10:10:13.931Z,91.30
2022-09-28T10:12:43.107Z,91.15
2022-09-28T10:15:24.326Z,89.37
2022-09-28T10:17:52.728Z,87.82
2022-09-28T10:20:20.706Z,89.14
2022-09-28T10:22:48.784Z,87.35
2022-09-28T10:25:17.039Z,88.74
2022-09-28T10:27:46.744Z,88.04
2022-09-28T10:30:19.318Z,88.13
2022-09-28T10:32:48.887Z,85.72
2022-09-28T10:35:25.410Z,86.07
2022-09-28T10:37:57.258Z,84.33
2022-09-28T10:40:40.506Z,84.57
2022-09-28T10:43:18.796Z,84.83
2022-09-28T10:45:47.857Z,86.66
2022-09-28T10:48:21.734Z,88.48
2022-09-28T10:50:59.898Z,87.92
2022-09-28T10:53:28.328Z,88.32
2022-09-28T10:56:01.594Z,87.34
2022-09-28T10:58:34.239Z,85.19
2022-09-28T11:01:08.506Z,86.50
2022-09-28T11:03:42.971Z,85.53
2022-09-28T11:06:10.871Z,84.78
2022-09-28T11:08:40.721Z,84.65
2022-09-28T11:11:11.146Z,84.74
2022-09-28T11:13:41.174Z,85.65
2022-09-28T11:16:21.202Z,85.61
2022-09-28T11:18:49.039Z,83.93
2022-09-28T11:21:18.316Z,85.08
2022-09-28T11:23:57.724Z,83.54
2022-09-28T11:26:26.111Z,84.17
2022-09-28T11:28:54.296Z,81.75
2022-09-28T11:31:29.097Z,81.51
2022-09-28T11:34:13.555Z,83.53
2022-09-28T11:37:08.707Z,84.56
2022-09-28T11:39:42.413Z,82.89
2022-09-28T11:42:19.574Z,81.14
2022-09-28T11:44:48.054Z,79.84
2022-09-28T11:47:42.735Z,78.68
2022-09-28T11:50:24.180Z,80.63
2022-09-28T11:52:58.476Z,79.42
2022-09-28T11:55:30.894Z,78.88
2022-09-28T11:58:03.820Z,79.22
2022-09-28T12:00:32.596Z,82.29
2022-09-28T12:03:08.558Z,82.70
2022-09-28T12:05:41.519Z,84.18
2022-09-28T12:08:15.727Z,83.34
2022-09-28T12:10:48.982Z,84.99
2022-09-28T12:13:20.316Z,84.42
2022-09-28T12:16:20.090Z,85.28
2022-09-28T12:18:48.421Z,84.55
2022-09-28T12:21:28.362Z,83.74
2022-09-28T12:23:59.339Z,83.97
2022-09-28T12:26:34.616Z,84.14
2022-09-28T12:29:11.485Z,82.50
2022-09-28T12:31:42.039Z,82.55
2022-09-28T12:34:11.541Z,79.99
2022-09-28T12:36:47.575Z,78.03
2022-09-28T12:39:41.202Z,79.31
2022-09-28T12:42:32.227Z,76.28
2022-09-28T12:45:13.692Z,76.89
2022-09-28T12:48:01.997Z,76.09
2022-09-28T12:50:39.381Z,76.89
2022-09-28T12:53:23.448Z,76.86
2022-09-28T12:55:56.196Z,74.90
2022-09-28T12:58:36.647Z,75.12
2022-09-28T13:01:18.138Z,75.01
2022-09-28T13:04:09.239Z,74.44
2022-09-28T13:07:02.648Z,75.12
2022-09-28T13:09:34.353Z,72.41
2022-09-28T13:12:13.263Z,71.08
2022-09-28T13:15:18.392Z,70.91
2022-09-28T13:18:05.097Z,67.59
2022-09-28T13:20:40.140Z,68.42
2022-09-28T13:23:17.467Z,68.79
2022-09-28T13:25:50.910Z,65.75
2022-09-28T13:28:26.238Z,64.36
2022-09-28T13:30:56.633Z,65.27
2022-09-28T13:33:35.549Z,63.86
2022-09-28T13:36:05.604Z,64.22
2022-09-28T13:38:52.822Z,65.52
2022-09-28T13:41:28.985Z,64.63
2022-09-28T13:44:20.951Z,63.88
2022-09-28T13:47:04.461Z,66.69
2022-09-28T13:49:41.045Z,64.15
2022-09-28T13:52:11.354Z,57.53
2022-09-28T13:54:50.777Z,54.93
2022-09-28T13:57:21.544Z,58.30
2022-09-28T13:59:59.170Z,53.00
2022-09-28T14:02:34.027Z,53.79
2022-09-28T14:05:04.393Z,53.58
2022-09-28T14:08:17.194Z,55.65
2022-09-28T14:10:53.730Z,52.37
2022-09-28T14:14:00.050Z,50.22
2022-09-28T14:16:31.241Z,51.39
2022-09-28T14:19:02.856Z,54.63
2022-09-28T14:22:01.856Z,53.08
2022-09-28T14:25:04.488Z,54.14
2022-09-28T14:27:53.740Z,59.02
2022-09-28T14:30:24.055Z,63.75
2022-09-28T14:32:57.942Z,64.39
2022-09-28T14:35:31.353Z,66.99
2022-09-28T14:38:23.588Z,67.39
2022-09-28T14:41:12.871Z,69.02
2022-09-28T14:44:04.616Z,68.48
2022-09-28T14:46:44.158Z,56.94
2022-09-28T14:49:50.483Z,59.10
2022-09-28T14:53:22.614Z,65.63
2022-09-28T14:55:55.403Z,52.84
2022-09-28T14:58:26.813Z,50.23
2022-09-28T15:01:02.808Z,50.64
2022-09-28T15:03:33.145Z,46.99
2022-09-28T15:06:01.868Z,46.87
2022-09-28T15:08:39.681Z,46.48
2022-09-28T15:11:11.505Z,47.97
2022-09-28T15:13:40.764Z,48.65
2022-09-28T15:16:12.662Z,49.31
2022-09-28T15:19:03.313Z,56.15
2022-09-28T15:21:36.378Z,55.79
2022-09-28T15:24:04.644Z,52.45
2022-09-28T15:26:33.805Z,50.15
2022-09-28T15:29:03.978Z,47.94
2022-09-28T15:31:37.022Z,50.13
2022-09-28T15:34:22.195Z,57.69
2022-09-28T15:36:50.316Z,63.39
2022-09-28T15:39:22.161Z,67.76
2022-09-28T15:41:51.791Z,70.22
2022-09-28T15:44:38.964Z,73.49
2022-09-28T15:47:13.742Z,73.96
2022-09-28T15:49:45.367Z,73.90
2022-09-28T15:52:26.475Z,76.14
2022-09-28T15:55:58.777Z,77.17
2022-09-28T15:58:27.330Z,79.40
2022-09-28T16:01:26.269Z,79.02
2022-09-28T16:03:56.658Z,81.26
2022-09-28T16:06:25.073Z,80.90
2022-09-28T16:08:53.841Z,79.36
2022-09-28T16:11:24.164Z,80.08
2022-09-28T16:13:57.481Z,82.40
2022-09-28T16:16:27.820Z,84.78
2022-09-28T16:19:02.517Z,84.14
2022-09-28T16:21:43.644Z,86.01
2022-09-28T16:24:20.950Z,86.01
2022-09-28T16:26:49.335Z,86.36
2022-09-28T16:29:26.896Z,87.77
2022-09-28T16:31:55.324Z,89.22
2022-09-28T16:34:27.442Z,89.16
2022-09-28T16:36:55.396Z,91.11
2022-09-28T16:39:23.684Z,90.64
2022-09-28T16:41:54.975Z,90.49
2022-09-28T16:44:29.837Z,90.64
2022-09-28T16:47:00.329Z,91.01
2022-09-28T16:49:36.918Z,93.06
2022-09-28T16:52:04.679Z,93.36
2022-09-28T16:54:49.964Z,94.10
2022-09-28T16:57:17.878Z,96.40
2022-09-28T16:59:49.517Z,95.11
2022-09-28T17:02:42.285Z,96.68
2022-09-28T17:05:08.450Z,95.55
2022-09-28T17:07:36.273Z,94.99
2022-09-28T17:10:13.410Z,94.69
2022-09-28T17:12:41.883Z,94.23
2022-09-28T17:15:10.016Z,93.79
2022-09-28T17:17:39.248Z,93.62
2022-09-28T17:20:17.338Z,94.70
2022-09-28T17:22:45.833Z,94.96
2022-09-28T17:25:14.598Z,95.07
2022-09-28T17:27:45.208Z,95.17
2022-09-28T17:30:14.820Z,96.14
2022-09-28T17:32:45.019Z,94.62
2022-09-28T17:35:24.753Z,96.17
2022-09-28T17:37:53.330Z,95.88
2022-09-28T17:40:23.738Z,97.08
2022-09-28T17:42:54.998Z,98.11
2022-09-28T17:45:23.392Z,97.46
2022-09-28T17:47:51.584Z,96.40
2022-09-28T17:50:23.591Z,95.10
2022-09-28T17:53:06.147Z,96.52
2022-09-28T17:55:36.346Z,95.76
2022-09-28T17:58:14.300Z,96.06
2022-09-28T18:00:42.017Z,96.39
2022-09-28T18:03:13.274Z,97.18
2022-09-28T18:05:42.938Z,100.00
2022-09-28T18:08:13.702Z,100.00
2022-09-28T18:10:41.553Z,100.00
2022-09-28T18:13:09.317Z,100.00
2022-09-28T18:15:38.008Z,100.00
2022-09-28T18:18:09.647Z,100.00
2022-09-28T18:20:38.106Z,100.00
2022-09-28T18:23:12.081Z,100.00
2022-09-28T18:25:41.182Z,100.00
2022-09-28T18:28:08.914Z,100.00
2022-09-28T18:30:40.490Z,100.00
2022-09-28T18:33:08.480Z,100.00
2022-09-28T18:35:37.979Z,100.00
2022-09-28T18:38:12.081Z,100.00
2022-09-28T18:40:39.835Z,100.00
2022-09-28T18:43:07.421Z,100.00
2022-09-28T18:45:36.529Z,100.00
2022-09-28T18:48:04.223Z,100.00
2022-09-28T18:50:34.468Z,100.00
2022-09-28T18:53:11.500Z,100.00
2022-09-28T18:55:42.603Z,100.00
2022-09-28T18:58:11.257Z,100.00
2022-09-28T19:00:42.653Z,100.00
2022-09-28T19:03:14.170Z,100.00
2022-09-28T19:05:42.908Z,100.00
2022-09-28T19:08:10.927Z,100.00
2022-09-28T19:10:38.545Z,100.00
2022-09-28T19:13:07.523Z,100.00
2022-09-28T19:15:35.312Z,100.00
2022-09-28T19:18:03.976Z,100.00
2022-09-28T19:20:33.840Z,100.00
2022-09-28T19:23:01.682Z,100.00
2022-09-28T19:25:29.636Z,100.00
2022-09-28T19:27:57.308Z,100.00
2022-09-28T19:30:26.298Z,100.00
2022-09-28T19:32:54.340Z,100.00
2022-09-28T19:35:21.857Z,100.00
2022-09-28T19:37:56.430Z,100.00
2022-09-28T19:40:27.554Z,100.00
2022-09-28T19:42:55.159Z,100.00
2022-09-28T19:45:23.731Z,100.00
2022-09-28T19:47:55.142Z,100.00
2022-09-28T19:50:26.222Z,100.00
2022-09-28T19:52:54.618Z,100.00
2022-09-28T19:55:22.961Z,100.00
2022-09-28T19:57:52.180Z,100.00
2022-09-28T20:00:20.355Z,100.00
2022-09-28T20:02:48.068Z,100.00
2022-09-28T20:05:17.232Z,100.00
2022-09-28T20:07:46.263Z,100.00
2022-09-28T20:10:14.142Z,100.00
2022-09-28T20:12:42.411Z,100.00
2022-09-28T20:15:11.156Z,100.00
2022-09-28T20:17:39.169Z,100.00
2022-09-28T20:20:07.437Z,100.00
2022-09-28T20:22:37.162Z,100.00
2022-09-28T20:25:05.276Z,100.00
2022-09-28T20:27:38.071Z,100.00
2022-09-28T20:30:07.011Z,100.00
2022-09-28T20:32:35.241Z,100.00
2022-09-28T20:35:02.801Z,100.00
2022-09-28T20:37:30.993Z,100.00
2022-09-28T20:40:01.039Z,100.00
2022-09-28T20:42:32.019Z,100.00
2022-09-28T20:45:00.193Z,100.00
2022-09-28T20:47:28.205Z,100.00
2022-09-28T20:49:56.827Z,100.00
2022-09-28T20:52:24.751Z,100.00
2022-09-28T20:54:52.253Z,100.00
2022-09-28T20:57:21.786Z,100.00
2022-09-28T20:59:54.557Z,100.00
2022-09-28T21:02:22.767Z,100.00
2022-09-28T21:04:50.559Z,100.00
2022-09-28T21:07:18.291Z,100.00
2022-09-28T21:09:46.593Z,100.00
2022-09-28T21:12:15.455Z,100.00
2022-09-28T21:14:45.388Z,100.00
2022-09-28T21:17:13.177Z,100.00
2022-09-28T21:19:40.774Z,100.00
2022-09-28T21:22:08.903Z,100.00
2022-09-28T21:24:37.084Z,100.00
2022-09-28T21:27:05.192Z,100.00
2022-09-28T21:29:32.785Z,100.00
2022-09-28T21:32:02.020Z,100.00
2022-09-28T21:34:29.965Z,100.00
2022-09-28T21:36:57.493Z,100.00
2022-09-28T21:39:25.014Z,100.00
2022-09-28T21:41:53.577Z,100.00
2022-09-28T21:44:21.205Z,100.00
2022-09-28T21:46:49.156Z,100.00
2022-09-28T21:49:18.106Z,100.00
2022-09-28T21:51:47.191Z,100.00
2022-09-28T21:54:15.328Z,100.00
2022-09-28T21:56:43.153Z,100.00
2022-09-28T21:59:10.747Z,100.00
2022-09-28T22:01:38.510Z,100.00
2022-09-28T22:04:06.227Z,100.00
2022-09-28T22:06:35.344Z,100.00
2022-09-28T22:09:03.096Z,100.00
2022-09-28T22:11:31.043Z,100.00
2022-09-28T22:14:00.070Z,100.00
2022-09-28T22:16:29.819Z,100.00
2022-09-28T22:18:57.724Z,100.00
2022-09-28T22:21:27.069Z,100.00
2022-09-28T22:24:01.089Z,100.00
2022-09-28T22:26:29.966Z,100.00
2022-09-28T22:28:59.431Z,100.00
2022-09-28T22:31:29.418Z,100.00
2022-09-28T22:33:57.377Z,100.00
2022-09-28T22:36:25.808Z,100.00
2022-09-28T22:38:54.872Z,100.00
2022-09-28T22:41:24.868Z,100.00
2022-09-28T22:43:54.471Z,100.00
2022-09-28T22:46:23.666Z,100.00
2022-09-28T22:48:52.522Z,100.00
2022-09-28T22:51:22.075Z,100.00
2022-09-28T22:53:50.100Z,100.00
2022-09-28T22:56:18.943Z,100.00
2022-09-28T22:58:48.625Z,100.00
2022-09-28T23:01:18.423Z,100.00
2022-09-28T23:03:46.658Z,100.00
2022-09-28T23:06:16.086Z,100.00
2022-09-28T23:08:44.571Z,100.00
2022-09-28T23:11:12.452Z,100.00
2022-09-28T23:13:41.041Z,100.00
2022-09-28T23:16:14.644Z,100.00
2022-09-28T23:18:42.790Z,100.00
2022-09-28T23:21:12.424Z,100.00
2022-09-28T23:23:40.214Z,100.00
2022-09-28T23:26:14.191Z,100.00
2022-09-28T23:28:42.437Z,100.00
2022-09-28T23:31:13.827Z,100.00
2022-09-28T23:33:41.608Z,100.00
2022-09-28T23:36:10.052Z,100.00
2022-09-28T23:38:37.852Z,100.00
2022-09-28T23:41:05.788Z,100.00
2022-09-28T23:43:33.566Z,100.00
2022-09-28T23:46:01.467Z,100.00
2022-09-28T23:48:30.850Z,100.00
2022-09-28T23:50:59.162Z,100.00
2022-09-28T23:53:26.816Z,100.00
2022-09-28T23:55:54.375Z,100.00
2022-09-28T23:58:22.469Z,100.00
